createdAt,value
2016-03-03T00:00:48.253Z,53.27
2016-03-03T00:01:48.225Z,53.45
2016-03-03T00:02:48.211Z,53.55
2016-03-03T00:03:48.183Z,53.65
2016-03-03T00:04:48.171Z,53.65
2016-03-03T00:05:48.219Z,53.45
2016-03-03T00:06:48.113Z,53.45
2016-03-03T00:07:48.100Z,53.74
2016-03-03T00:08:48.071Z,53.55
2016-03-03T00:09:48.027Z,53.36
2016-03-03T00:10:47.999Z,53.36
2016-03-03T00:11:47.985Z,53.45
2016-03-03T00:12:47.957Z,53.45
2016-03-03T00:13:47.945Z,53.45
2016-03-03T00:14:47.901Z,53.27
2016-03-03T00:15:47.887Z,53.45
2016-03-03T00:16:47.859Z,53.55
2016-03-03T00:17:47.831Z,53.55
2016-03-03T00:18:47.817Z,53.65
2016-03-03T00:19:47.789Z,53.55
2016-03-03T00:20:47.760Z,53.55
2016-03-03T00:21:47.731Z,53.45
2016-03-03T00:22:47.719Z,53.45
2016-03-03T00:23:47.690Z,53.08
2016-03-03T00:24:47.661Z,53.36
2016-03-03T00:25:47.649Z,53.36
2016-03-03T00:26:47.605Z,53.55
2016-03-03T00:27:47.592Z,53.65
2016-03-03T00:28:47.563Z,53.65
2016-03-03T00:29:47.550Z,53.65
2016-03-03T00:30:47.506Z,53.55
2016-03-03T00:31:47.493Z,53.74
2016-03-03T00:32:47.464Z,53.36
2016-03-03T00:33:47.435Z,53.45
2016-03-03T00:34:47.423Z,53.65
2016-03-03T00:35:47.394Z,53.55
2016-03-03T00:36:47.366Z,53.36
2016-03-03T00:37:47.337Z,53.36
2016-03-03T00:38:47.308Z,53.27
2016-03-03T00:39:47.280Z,53.84
2016-03-03T00:40:47.267Z,53.45
2016-03-03T00:41:47.520Z,53.45
2016-03-03T00:42:47.226Z,53.55
2016-03-03T00:43:47.212Z,53.55
2016-03-03T00:44:47.169Z,53.45
2016-03-03T00:45:47.140Z,53.65
2016-03-03T00:46:47.267Z,53.65
2016-03-03T00:47:47.099Z,53.36
2016-03-03T00:48:47.070Z,53.36
2016-03-03T00:49:47.056Z,53.55
2016-03-03T00:50:47.012Z,53.17
2016-03-03T00:51:47.016Z,53.17
2016-03-03T00:52:46.971Z,53.65
2016-03-03T00:53:46.958Z,53.74
2016-03-03T00:54:46.914Z,53.55
2016-03-03T00:55:46.901Z,53.45
2016-03-03T00:56:46.873Z,53.84
2016-03-03T00:57:46.845Z,53.84
2016-03-03T00:58:46.831Z,53.74
2016-03-03T00:59:46.787Z,53.43
2016-03-03T01:00:46.789Z,53.45
2016-03-03T01:01:46.745Z,53.36
2016-03-03T01:02:46.717Z,53.65
2016-03-03T01:03:46.704Z,53.36
2016-03-03T01:04:46.708Z,53.74
2016-03-03T01:05:46.678Z,53.72
2016-03-03T01:06:46.619Z,53.53
2016-03-03T01:07:46.605Z,53.36
2016-03-03T01:08:46.560Z,53.36
2016-03-03T01:09:46.549Z,53.84
2016-03-03T01:10:46.519Z,53.65
2016-03-03T01:11:46.491Z,53.36
2016-03-03T01:12:46.479Z,53.65
2016-03-03T01:13:46.450Z,53.36
2016-03-03T01:14:46.421Z,53.45
2016-03-03T01:15:46.393Z,53.55
2016-03-03T01:16:46.380Z,53.74
2016-03-03T01:17:45.617Z,53.36
2016-03-03T01:18:46.323Z,53.84
2016-03-03T01:19:46.310Z,53.65
2016-03-03T01:20:46.265Z,53.45
2016-03-03T01:21:46.253Z,53.62
2016-03-03T01:22:46.224Z,53.72
2016-03-03T01:23:46.226Z,53.33
2016-03-03T01:24:46.167Z,53.53
2016-03-03T01:25:46.169Z,53.55
2016-03-03T01:26:46.125Z,53.62
2016-03-03T01:27:46.097Z,53.65
2016-03-03T01:28:46.068Z,53.62
2016-03-03T01:29:46.071Z,53.55
2016-03-03T01:30:46.027Z,53.81
2016-03-03T01:31:46.014Z,53.55
2016-03-03T01:32:45.969Z,53.17
2016-03-03T01:33:45.988Z,53.55
2016-03-03T01:34:45.927Z,53.45
2016-03-03T01:35:45.899Z,53.72
2016-03-03T01:36:45.902Z,54.13
2016-03-03T01:37:45.858Z,53.72
2016-03-03T01:38:45.829Z,53.72
2016-03-03T01:39:45.801Z,53.62
2016-03-03T01:40:45.772Z,53.72
2016-03-03T01:41:45.759Z,53.74
2016-03-03T01:42:45.730Z,53.72
2016-03-03T01:43:45.983Z,53.55
2016-03-03T01:44:45.705Z,53.62
2016-03-03T01:45:45.660Z,53.53
2016-03-03T01:46:45.617Z,53.81
2016-03-03T01:47:45.604Z,53.72
2016-03-03T01:48:45.576Z,53.43
2016-03-03T01:49:45.562Z,53.53
2016-03-03T01:50:45.518Z,54.1
2016-03-03T01:51:45.505Z,54.1
2016-03-03T01:52:45.477Z,54
2016-03-03T01:53:45.461Z,53.72
2016-03-03T01:54:45.432Z,53.74
2016-03-03T01:55:45.404Z,53.91
2016-03-03T01:56:45.375Z,53.72
2016-03-03T01:57:45.346Z,53.81
2016-03-03T01:58:45.333Z,53.81
2016-03-03T01:59:45.352Z,53.91
2016-03-03T02:00:45.292Z,53.81
2016-03-03T02:01:45.264Z,53.81
2016-03-03T02:02:45.235Z,53.72
2016-03-03T02:03:45.205Z,53.53
2016-03-03T02:04:45.177Z,53.72
2016-03-03T02:05:45.196Z,53.72
2016-03-03T02:06:45.152Z,53.72
2016-03-03T02:07:45.108Z,53.84
2016-03-03T02:08:45.080Z,53.81
2016-03-03T02:09:45.051Z,53.62
2016-03-03T02:10:45.038Z,53.81
2016-03-03T02:11:45.010Z,53.91
2016-03-03T02:12:44.981Z,53.81
2016-03-03T02:13:44.952Z,53.81
2016-03-03T02:14:44.939Z,53.81
2016-03-03T02:15:44.910Z,54
2016-03-03T02:16:44.882Z,53.91
2016-03-03T02:17:44.854Z,54
2016-03-03T02:18:44.841Z,54
2016-03-03T02:19:44.812Z,53.81
2016-03-03T02:20:44.784Z,53.81
2016-03-03T02:21:44.754Z,53.91
2016-03-03T02:22:44.742Z,53.81
2016-03-03T02:23:44.713Z,53.81
2016-03-03T02:24:44.685Z,53.53
2016-03-03T02:25:44.672Z,53.91
2016-03-03T02:26:44.628Z,53.81
2016-03-03T02:27:44.614Z,53.81
2016-03-03T02:28:44.570Z,53.62
2016-03-03T02:29:44.557Z,53.62
2016-03-03T02:30:44.528Z,53.72
2016-03-03T02:31:44.501Z,53.81
2016-03-03T02:32:44.488Z,53.91
2016-03-03T02:33:44.459Z,53.81
2016-03-03T02:34:44.571Z,53.62
2016-03-03T02:35:44.402Z,53.91
2016-03-03T02:36:44.388Z,53.91
2016-03-03T02:37:44.360Z,53.81
2016-03-03T02:38:44.332Z,53.81
2016-03-03T02:39:44.319Z,53.91
2016-03-03T02:40:44.290Z,53.81
2016-03-03T02:41:44.262Z,54
2016-03-03T02:42:44.232Z,53.81
2016-03-03T02:43:44.204Z,53.91
2016-03-03T02:44:44.191Z,53.91
2016-03-03T02:45:44.163Z,53.81
2016-03-03T02:46:44.385Z,53.81
2016-03-03T02:47:44.106Z,53.72
2016-03-03T02:48:44.109Z,53.62
2016-03-03T02:49:44.058Z,53.72
2016-03-03T02:50:44.014Z,53.81
2016-03-03T02:51:43.969Z,53.72
2016-03-03T02:52:43.941Z,53.72
2016-03-03T02:53:43.896Z,53.72
2016-03-03T02:54:43.858Z,54
2016-03-03T02:55:43.824Z,53.91
2016-03-03T02:56:43.790Z,54.19
2016-03-03T02:57:43.755Z,54
2016-03-03T02:58:43.753Z,53.81
2016-03-03T02:59:43.721Z,53.62
2016-03-03T03:00:43.707Z,53.81
2016-03-03T03:01:43.644Z,53.81
2016-03-03T03:02:43.629Z,53.72
2016-03-03T03:03:43.615Z,54
2016-03-03T03:04:43.569Z,53.91
2016-03-03T03:05:43.555Z,53.81
2016-03-03T03:06:43.526Z,54
2016-03-03T03:07:43.497Z,53.81
2016-03-03T03:08:43.468Z,54
2016-03-03T03:09:43.439Z,53.91
2016-03-03T03:10:43.426Z,53.72
2016-03-03T03:11:43.396Z,54
2016-03-03T03:12:43.368Z,53.91
2016-03-03T03:13:43.339Z,54
2016-03-03T03:14:43.326Z,54.19
2016-03-03T03:15:43.281Z,54
2016-03-03T03:16:43.268Z,54.1
2016-03-03T03:17:43.271Z,53.53
2016-03-03T03:18:43.227Z,54.1
2016-03-03T03:19:43.198Z,54.1
2016-03-03T03:20:43.169Z,54.1
2016-03-03T03:21:43.141Z,54.1
2016-03-03T03:22:43.113Z,54.1
2016-03-03T03:23:43.100Z,53.91
2016-03-03T03:24:43.072Z,53.62
2016-03-03T03:25:43.043Z,53.81
2016-03-03T03:26:43.015Z,53.81
2016-03-03T03:27:43.002Z,53.72
2016-03-03T03:28:42.974Z,53.91
2016-03-03T03:29:42.944Z,53.72
2016-03-03T03:30:42.915Z,53.81
2016-03-03T03:31:42.884Z,53.81
2016-03-03T03:32:42.871Z,53.81
2016-03-03T03:33:42.843Z,53.81
2016-03-03T03:34:42.830Z,53.91
2016-03-03T03:35:42.786Z,53.62
2016-03-03T03:36:42.977Z,54
2016-03-03T03:37:42.760Z,53.81
2016-03-03T03:38:42.576Z,53.81
2016-03-03T03:39:42.703Z,53.81
2016-03-03T03:40:42.659Z,53.81
2016-03-03T03:41:42.645Z,53.72
2016-03-03T03:42:42.617Z,53.91
2016-03-03T03:43:42.604Z,53.72
2016-03-03T03:44:42.576Z,53.72
2016-03-03T03:45:42.548Z,53.91
2016-03-03T03:46:42.519Z,54
2016-03-03T03:47:42.490Z,53.72
2016-03-03T03:48:42.462Z,53.72
2016-03-03T03:49:42.450Z,53.72
2016-03-03T03:50:42.420Z,53.81
2016-03-03T03:51:42.408Z,53.81
2016-03-03T03:52:42.363Z,53.91
2016-03-03T03:53:42.335Z,53.81
2016-03-03T03:54:42.322Z,53.72
2016-03-03T03:55:42.308Z,53.81
2016-03-03T03:56:42.264Z,54
2016-03-03T03:57:42.266Z,54
2016-03-03T03:58:42.223Z,53.81
2016-03-03T03:59:42.210Z,53.72
2016-03-03T04:00:42.182Z,53.62
2016-03-03T04:01:42.153Z,53.72
2016-03-03T04:02:42.124Z,53.91
2016-03-03T04:03:42.127Z,53.81
2016-03-03T04:04:42.068Z,53.81
2016-03-03T04:05:42.054Z,54
2016-03-03T04:06:42.010Z,54
2016-03-03T04:07:41.997Z,53.81
2016-03-03T04:08:41.968Z,53.91
2016-03-03T04:09:41.956Z,53.81
2016-03-03T04:10:41.926Z,54.1
2016-03-03T04:11:41.884Z,53.91
2016-03-03T04:12:41.886Z,53.81
2016-03-03T04:13:41.842Z,53.81
2016-03-03T04:14:41.813Z,53.62
2016-03-03T04:15:41.801Z,53.91
2016-03-03T04:16:41.772Z,54
2016-03-03T04:17:41.759Z,53.72
2016-03-03T04:18:41.715Z,53.62
2016-03-03T04:19:41.702Z,53.81
2016-03-03T04:20:41.659Z,53.81
2016-03-03T04:21:41.650Z,54
2016-03-03T04:22:41.622Z,53.91
2016-03-03T04:23:41.593Z,53.91
2016-03-03T04:24:41.564Z,53.72
2016-03-03T04:25:41.536Z,53.81
2016-03-03T04:26:41.522Z,53.81
2016-03-03T04:27:41.510Z,53.81
2016-03-03T04:28:41.466Z,53.81
2016-03-03T04:29:41.452Z,53.62
2016-03-03T04:30:41.409Z,53.81
2016-03-03T04:31:41.396Z,53.72
2016-03-03T04:32:41.367Z,53.62
2016-03-03T04:33:41.355Z,53.81
2016-03-03T04:34:41.310Z,53.91
2016-03-03T04:35:41.313Z,54
2016-03-03T04:36:41.268Z,53.72
2016-03-03T04:37:41.255Z,54
2016-03-03T04:38:41.227Z,53.81
2016-03-03T04:39:41.198Z,53.81
2016-03-03T04:40:41.170Z,54
2016-03-03T04:41:41.173Z,54.1
2016-03-03T04:42:41.113Z,53.91
2016-03-03T04:43:41.100Z,53.91
2016-03-03T04:44:41.071Z,53.91
2016-03-03T04:45:41.059Z,53.81
2016-03-03T04:46:41.014Z,53.91
2016-03-03T04:47:41.001Z,54
2016-03-03T04:48:40.973Z,53.91
2016-03-03T04:49:40.945Z,53.62
2016-03-03T04:50:40.931Z,53.81
2016-03-03T04:51:40.887Z,53.81
2016-03-03T04:52:40.889Z,53.81
2016-03-03T04:53:40.845Z,53.91
2016-03-03T04:54:40.817Z,53.72
2016-03-03T04:55:40.819Z,53.72
2016-03-03T04:56:40.791Z,53.62
2016-03-03T04:57:40.762Z,53.91
2016-03-03T04:58:40.734Z,53.81
2016-03-03T04:59:40.690Z,53.72
2016-03-03T05:00:40.677Z,53.62
2016-03-03T05:01:40.648Z,53.62
2016-03-03T05:02:40.636Z,54
2016-03-03T05:03:40.607Z,53.72
2016-03-03T05:04:40.578Z,53.81
2016-03-03T05:05:40.549Z,53.72
2016-03-03T05:06:40.521Z,53.81
2016-03-03T05:07:40.493Z,53.81
2016-03-03T05:08:40.480Z,53.81
2016-03-03T05:09:40.435Z,53.91
2016-03-03T05:10:40.485Z,53.81
2016-03-03T05:11:40.393Z,53.72
2016-03-03T05:12:40.365Z,53.81
2016-03-03T05:13:40.352Z,53.81
2016-03-03T05:14:40.323Z,53.91
2016-03-03T05:15:40.311Z,53.72
2016-03-03T05:16:40.267Z,53.81
2016-03-03T05:17:40.269Z,53.81
2016-03-03T05:18:40.225Z,53.72
2016-03-03T05:19:40.196Z,53.91
2016-03-03T05:20:40.184Z,53.81
2016-03-03T05:21:40.140Z,53.91
2016-03-03T05:22:40.126Z,53.62
2016-03-03T05:23:40.098Z,53.91
2016-03-03T05:24:40.289Z,53.72
2016-03-03T05:25:40.151Z,53.62
2016-03-03T05:26:40.012Z,53.81
2016-03-03T05:27:40.000Z,53.72
2016-03-03T05:28:39.971Z,53.81
2016-03-03T05:29:39.989Z,53.91
2016-03-03T05:30:39.930Z,53.81
2016-03-03T05:31:39.900Z,53.81
2016-03-03T05:32:39.872Z,53.81
2016-03-03T05:33:39.859Z,53.81
2016-03-03T05:34:39.815Z,53.81
2016-03-03T05:35:39.802Z,53.81
2016-03-03T05:36:39.774Z,53.81
2016-03-03T05:37:39.744Z,53.81
2016-03-03T05:38:39.716Z,54
2016-03-03T05:39:39.704Z,53.72
2016-03-03T05:40:39.675Z,53.91
2016-03-03T05:41:39.647Z,53.72
2016-03-03T05:42:39.618Z,53.62
2016-03-03T05:43:39.590Z,53.72
2016-03-03T05:44:39.576Z,53.72
2016-03-03T05:45:39.548Z,53.72
2016-03-03T05:46:39.519Z,53.81
2016-03-03T05:47:39.490Z,53.72
2016-03-03T05:48:39.478Z,54
2016-03-03T05:49:39.449Z,53.72
2016-03-03T05:50:39.421Z,53.91
2016-03-03T05:51:39.408Z,54
2016-03-03T05:52:39.364Z,53.53
2016-03-03T05:53:39.351Z,54.1
2016-03-03T05:54:39.323Z,54.19
2016-03-03T05:55:39.293Z,53.81
2016-03-03T05:56:39.265Z,53.91
2016-03-03T05:57:39.236Z,53.62
2016-03-03T05:58:39.223Z,53.91
2016-03-03T05:59:39.195Z,54
2016-03-03T06:00:39.182Z,53.91
2016-03-03T06:01:39.153Z,53.91
2016-03-03T06:02:39.125Z,53.81
2016-03-03T06:03:39.096Z,53.72
2016-03-03T06:04:39.083Z,53.91
2016-03-03T06:05:39.039Z,53.81
2016-03-03T06:06:39.041Z,53.72
2016-03-03T06:07:38.998Z,53.62
2016-03-03T06:08:38.969Z,53.72
2016-03-03T06:09:38.955Z,53.72
2016-03-03T06:10:38.927Z,53.81
2016-03-03T06:11:38.899Z,53.81
2016-03-03T06:12:38.870Z,53.72
2016-03-03T06:13:39.045Z,53.91
2016-03-03T06:14:38.829Z,54
2016-03-03T06:15:38.801Z,53.72
2016-03-03T06:16:38.787Z,53.72
2016-03-03T06:17:38.744Z,54
2016-03-03T06:18:38.746Z,53.62
2016-03-03T06:19:38.702Z,53.72
2016-03-03T06:20:38.674Z,54.1
2016-03-03T06:21:38.646Z,53.81
2016-03-03T06:22:38.616Z,53.81
2016-03-03T06:23:38.604Z,53.81
2016-03-03T06:24:38.575Z,54.19
2016-03-03T06:25:38.546Z,53.81
2016-03-03T06:26:38.721Z,53.81
2016-03-03T06:27:38.504Z,53.91
2016-03-03T06:28:38.492Z,53.81
2016-03-03T06:29:38.448Z,53.81
2016-03-03T06:30:38.450Z,53.81
2016-03-03T06:31:38.390Z,53.81
2016-03-03T06:32:38.378Z,54
2016-03-03T06:33:38.349Z,53.91
2016-03-03T06:34:38.320Z,53.72
2016-03-03T06:35:38.292Z,54.1
2016-03-03T06:36:38.278Z,53.62
2016-03-03T06:37:38.282Z,53.62
2016-03-03T06:38:38.222Z,53.81
2016-03-03T06:39:38.209Z,53.81
2016-03-03T06:40:38.181Z,53.81
2016-03-03T06:41:38.153Z,53.81
2016-03-03T06:42:37.967Z,53.81
2016-03-03T06:43:38.095Z,53.81
2016-03-03T06:44:38.082Z,53.72
2016-03-03T06:45:38.054Z,53.72
2016-03-03T06:46:38.025Z,54
2016-03-03T06:47:37.997Z,53.81
2016-03-03T06:48:37.969Z,53.81
2016-03-03T06:49:37.959Z,54
2016-03-03T06:50:37.914Z,53.81
2016-03-03T06:51:37.902Z,53.81
2016-03-03T06:52:37.873Z,53.91
2016-03-03T06:53:37.845Z,53.72
2016-03-03T06:54:37.864Z,53.72
2016-03-03T06:55:37.803Z,54
2016-03-03T06:56:37.775Z,53.91
2016-03-03T06:57:37.761Z,54.1
2016-03-03T06:58:37.717Z,53.62
2016-03-03T06:59:37.689Z,53.91
2016-03-03T07:00:37.707Z,53.53
2016-03-03T07:01:37.648Z,53.72
2016-03-03T07:02:37.635Z,53.72
2016-03-03T07:03:37.591Z,53.72
2016-03-03T07:04:37.578Z,53.81
2016-03-03T07:05:37.549Z,53.81
2016-03-03T07:06:37.521Z,53.72
2016-03-03T07:07:37.491Z,53.81
2016-03-03T07:08:37.480Z,53.53
2016-03-03T07:09:37.450Z,53.72
2016-03-03T07:10:37.437Z,53.72
2016-03-03T07:11:37.410Z,53.72
2016-03-03T07:12:37.365Z,53.53
2016-03-03T07:13:37.352Z,53.53
2016-03-03T07:14:37.339Z,53.43
2016-03-03T07:15:37.310Z,53.53
2016-03-03T07:16:37.265Z,53.33
2016-03-03T07:17:37.253Z,53.33
2016-03-03T07:18:37.224Z,53.33
2016-03-03T07:19:37.212Z,53.43
2016-03-03T07:20:37.167Z,53.53
2016-03-03T07:21:37.154Z,53.62
2016-03-03T07:22:37.126Z,53.43
2016-03-03T07:23:37.300Z,53.33
2016-03-03T07:24:37.070Z,53.53
2016-03-03T07:25:37.056Z,53.62
2016-03-03T07:26:37.027Z,53.53
2016-03-03T07:27:36.983Z,53.43
2016-03-03T07:28:36.986Z,53.53
2016-03-03T07:29:36.942Z,53.43
2016-03-03T07:30:36.928Z,53.53
2016-03-03T07:31:36.900Z,53.43
2016-03-03T07:32:36.887Z,53.33
2016-03-03T07:33:36.859Z,53.43
2016-03-03T07:34:36.831Z,53.62
2016-03-03T07:35:36.802Z,53.43
2016-03-03T07:36:36.788Z,53.33
2016-03-03T07:37:36.760Z,53.33
2016-03-03T07:38:36.732Z,53.24
2016-03-03T07:39:36.703Z,53.33
2016-03-03T07:40:36.674Z,53.14
2016-03-03T07:41:36.646Z,53.14
2016-03-03T07:42:36.618Z,53.43
2016-03-03T07:43:36.604Z,53.14
2016-03-03T07:44:36.592Z,53.53
2016-03-03T07:45:36.563Z,53.33
2016-03-03T07:46:36.518Z,53.33
2016-03-03T07:47:36.506Z,53.33
2016-03-03T07:48:36.509Z,53.33
2016-03-03T07:49:36.464Z,53.27
2016-03-03T07:50:36.451Z,53.14
2016-03-03T07:51:36.407Z,53.14
2016-03-03T07:52:36.394Z,53.62
2016-03-03T07:53:36.350Z,53.14
2016-03-03T07:54:36.337Z,53.53
2016-03-03T07:55:36.309Z,53.55
2016-03-03T07:56:36.280Z,53.53
2016-03-03T07:57:36.251Z,53.53
2016-03-03T07:58:36.239Z,53.53
2016-03-03T07:59:36.209Z,53.55
2016-03-03T08:00:36.181Z,53.53
2016-03-03T08:01:36.152Z,53.55
2016-03-03T08:02:36.124Z,53.53
2016-03-03T08:03:36.112Z,53.55
2016-03-03T08:04:36.083Z,53.55
2016-03-03T08:05:36.055Z,53.65
2016-03-03T08:06:36.025Z,53.55
2016-03-03T08:07:35.997Z,53.62
2016-03-03T08:08:35.984Z,53.55
2016-03-03T08:09:35.955Z,53.53
2016-03-03T08:10:35.943Z,53.45
2016-03-03T08:11:35.899Z,53.53
2016-03-03T08:12:35.869Z,53.53
2016-03-03T08:13:35.857Z,53.55
2016-03-03T08:14:35.829Z,53.53
2016-03-03T08:15:35.815Z,53.53
2016-03-03T08:16:35.771Z,53.43
2016-03-03T08:17:35.758Z,53.55
2016-03-03T08:18:35.745Z,53.62
2016-03-03T08:19:35.701Z,53.65
2016-03-03T08:20:35.970Z,53.55
2016-03-03T08:21:35.660Z,53.45
2016-03-03T08:22:35.646Z,53.65
2016-03-03T08:23:35.603Z,53.45
2016-03-03T08:24:35.590Z,53.24
2016-03-03T08:25:35.561Z,53.45
2016-03-03T08:26:35.532Z,53.43
2016-03-03T08:27:35.520Z,53.43
2016-03-03T08:28:35.491Z,53.36
2016-03-03T08:29:35.462Z,53.27
2016-03-03T08:30:35.450Z,53.53
2016-03-03T08:31:35.405Z,53.45
2016-03-03T08:32:35.393Z,53.62
2016-03-03T08:33:35.364Z,53.36
2016-03-03T08:34:35.367Z,53.45
2016-03-03T08:35:35.306Z,53.27
2016-03-03T08:36:35.278Z,53.45
2016-03-03T08:37:35.266Z,53.05
2016-03-03T08:38:35.236Z,53.17
2016-03-03T08:39:35.224Z,53.45
2016-03-03T08:40:35.180Z,53.17
2016-03-03T08:41:35.166Z,53.27
2016-03-03T08:42:35.138Z,53.17
2016-03-03T08:43:35.110Z,53.17
2016-03-03T08:44:35.080Z,52.98
2016-03-03T08:45:35.068Z,53.27
2016-03-03T08:46:35.040Z,53.08
2016-03-03T08:47:35.010Z,53.17
2016-03-03T08:48:34.982Z,53.27
2016-03-03T08:49:34.954Z,53.27
2016-03-03T08:50:34.956Z,53.27
2016-03-03T08:51:34.912Z,53.08
2016-03-03T08:52:34.915Z,52.88
2016-03-03T08:53:34.871Z,53.17
2016-03-03T08:54:34.842Z,53.17
2016-03-03T08:55:34.814Z,53.17
2016-03-03T08:56:34.801Z,53.36
2016-03-03T08:57:34.756Z,53.27
2016-03-03T08:58:34.759Z,53.27
2016-03-03T08:59:34.715Z,53.27
2016-03-03T09:00:34.686Z,53.36
2016-03-03T09:01:34.659Z,53.08
2016-03-03T09:02:34.661Z,52.5
2016-03-03T09:03:34.647Z,52.98
2016-03-03T09:04:34.588Z,52.69
2016-03-03T09:05:34.575Z,52.59
2016-03-03T09:06:34.546Z,53.27
2016-03-03T09:07:34.533Z,53.08
2016-03-03T09:08:34.489Z,52.88
2016-03-03T09:09:34.461Z,52.79
2016-03-03T09:10:34.448Z,53.08
2016-03-03T09:11:34.450Z,53.27
2016-03-03T09:12:34.390Z,52.98
2016-03-03T09:13:34.394Z,53.17
2016-03-03T09:14:34.349Z,53.27
2016-03-03T09:15:34.336Z,53.08
2016-03-03T09:16:34.291Z,53.17
2016-03-03T09:17:34.513Z,52.88
2016-03-03T09:18:34.251Z,52.69
2016-03-03T09:19:34.238Z,52.69
2016-03-03T09:20:34.209Z,52.22
2016-03-03T09:21:34.196Z,52.31
2016-03-03T09:22:34.168Z,52.79
2016-03-03T09:23:34.139Z,53.45
2016-03-03T09:24:34.126Z,53.36
2016-03-03T09:25:34.097Z,53.29
2016-03-03T09:26:34.053Z,52.91
2016-03-03T09:27:34.040Z,52.5
2016-03-03T09:28:34.012Z,53.29
2016-03-03T09:29:33.983Z,52.53
2016-03-03T09:30:33.954Z,52.62
2016-03-03T09:31:33.973Z,53.2
2016-03-03T09:32:33.913Z,53.29
2016-03-03T09:33:33.884Z,53
2016-03-03T09:34:33.871Z,52.91
2016-03-03T09:35:33.843Z,53.2
2016-03-03T09:36:33.814Z,53.29
2016-03-03T09:37:33.786Z,53.1
2016-03-03T09:38:33.773Z,52.62
2016-03-03T09:39:33.744Z,52.53
2016-03-03T09:40:33.731Z,52.72
2016-03-03T09:41:33.719Z,52.72
2016-03-03T09:42:33.674Z,52.53
2016-03-03T09:43:33.661Z,52.81
2016-03-03T09:44:33.664Z,53.29
2016-03-03T09:45:33.448Z,53.29
2016-03-03T09:46:33.592Z,53.2
2016-03-03T09:47:33.547Z,53.2
2016-03-03T09:48:33.535Z,53.29
2016-03-03T09:49:33.505Z,53.29
2016-03-03T09:50:33.477Z,53.29
2016-03-03T09:51:33.464Z,52.62
2016-03-03T09:52:33.420Z,52.81
2016-03-03T09:53:33.391Z,52.62
2016-03-03T09:54:33.379Z,52.72
2016-03-03T09:55:33.350Z,52.53
2016-03-03T09:56:33.321Z,52.53
2016-03-03T09:57:33.324Z,52.15
2016-03-03T09:58:33.296Z,52.62
2016-03-03T09:59:33.267Z,52.62
2016-03-03T10:00:33.223Z,52.62
2016-03-03T10:01:33.210Z,53.39
2016-03-03T10:02:33.181Z,52.43
2016-03-03T10:03:33.168Z,52.24
2016-03-03T10:04:33.140Z,52.34
2016-03-03T10:05:33.111Z,52.62
2016-03-03T10:06:33.083Z,52.81
2016-03-03T10:07:33.100Z,52.81
2016-03-03T10:08:33.041Z,52.72
2016-03-03T10:09:33.013Z,52.72
2016-03-03T10:10:32.999Z,52.53
2016-03-03T10:11:32.972Z,52.62
2016-03-03T10:12:32.942Z,53.39
2016-03-03T10:13:32.914Z,52.81
2016-03-03T10:14:33.072Z,52.53
2016-03-03T10:15:32.919Z,52.53
2016-03-03T10:16:32.843Z,52.53
2016-03-03T10:17:32.830Z,52.17
2016-03-03T10:18:32.787Z,52.36
2016-03-03T10:19:32.789Z,52.36
2016-03-03T10:20:32.745Z,52.36
2016-03-03T10:21:32.732Z,52.46
2016-03-03T10:22:32.704Z,52.08
2016-03-03T10:23:32.675Z,52.17
2016-03-03T10:24:32.646Z,52.17
2016-03-03T10:25:32.634Z,52.17
2016-03-03T10:26:32.604Z,52.08
2016-03-03T10:27:32.592Z,52.08
2016-03-03T10:28:32.548Z,52.26
2016-03-03T10:29:32.534Z,52.26
2016-03-03T10:30:32.506Z,52.17
2016-03-03T10:31:32.478Z,51.89
2016-03-03T10:32:32.464Z,51.79
2016-03-03T10:33:32.452Z,52.08
2016-03-03T10:34:32.423Z,51.79
2016-03-03T10:35:32.394Z,51.98
2016-03-03T10:36:32.366Z,52.08
2016-03-03T10:37:32.353Z,52.08
2016-03-03T10:38:32.325Z,51.89
2016-03-03T10:39:32.311Z,51.79
2016-03-03T10:40:32.267Z,51.79
2016-03-03T10:41:32.255Z,51.7
2016-03-03T10:42:32.226Z,51.79
2016-03-03T10:43:32.197Z,51.79
2016-03-03T10:44:32.185Z,51.98
2016-03-03T10:45:32.155Z,51.89
2016-03-03T10:46:32.143Z,51.89
2016-03-03T10:47:32.099Z,51.7
2016-03-03T10:48:32.085Z,51.98
2016-03-03T10:49:32.073Z,51.79
2016-03-03T10:50:32.076Z,52.08
2016-03-03T10:51:32.110Z,51.79
2016-03-03T10:52:32.003Z,51.79
2016-03-03T10:53:31.959Z,51.98
2016-03-03T10:54:31.946Z,52.08
2016-03-03T10:55:31.917Z,51.7
2016-03-03T10:56:31.904Z,51.6
2016-03-03T10:57:31.860Z,51.7
2016-03-03T10:58:31.706Z,51.7
2016-03-03T10:59:31.818Z,51.31
2016-03-03T11:00:31.806Z,51.31
2016-03-03T11:01:31.777Z,51.41
2016-03-03T11:02:31.748Z,51.12
2016-03-03T11:03:31.720Z,50.84
2016-03-03T11:04:31.706Z,51.03
2016-03-03T11:05:31.678Z,51.03
2016-03-03T11:06:31.650Z,51.03
2016-03-03T11:07:31.637Z,51.03
2016-03-03T11:08:31.624Z,50.48
2016-03-03T11:09:31.611Z,51.03
2016-03-03T11:10:31.583Z,50.93
2016-03-03T11:11:31.741Z,50.93
2016-03-03T11:12:31.510Z,51.21
2016-03-03T11:13:31.489Z,50.93
2016-03-03T11:14:31.304Z,50.84
2016-03-03T11:15:31.479Z,50.64
2016-03-03T11:16:31.416Z,51.03
2016-03-03T11:17:31.387Z,51.03
2016-03-03T11:18:31.374Z,51.03
2016-03-03T11:19:31.362Z,50.74
2016-03-03T11:20:31.333Z,50.74
2016-03-03T11:21:31.320Z,50.93
2016-03-03T11:22:31.277Z,50.84
2016-03-03T11:23:31.263Z,50.55
2016-03-03T11:24:31.234Z,50.74
2016-03-03T11:25:31.207Z,50.84
2016-03-03T11:26:31.193Z,50.55
2016-03-03T11:27:31.164Z,51.03
2016-03-03T11:28:31.137Z,50.93
2016-03-03T11:29:31.107Z,51.7
2016-03-03T11:30:31.110Z,51.89
2016-03-03T11:31:31.066Z,52.84
2016-03-03T11:32:31.037Z,52.75
2016-03-03T11:33:31.025Z,53.32
2016-03-03T11:34:30.995Z,53.06
2016-03-03T11:35:30.983Z,53.44
2016-03-03T11:36:30.955Z,53.82
2016-03-03T11:37:30.926Z,53.25
2016-03-03T11:38:30.897Z,53.73
2016-03-03T11:39:30.869Z,53.53
2016-03-03T11:40:30.856Z,53.73
2016-03-03T11:41:30.827Z,53.25
2016-03-03T11:42:30.846Z,53.63
2016-03-03T11:43:30.786Z,53.63
2016-03-03T11:44:30.772Z,53.73
2016-03-03T11:45:30.744Z,53.44
2016-03-03T11:46:30.747Z,53.53
2016-03-03T11:47:30.702Z,53.63
2016-03-03T11:48:30.705Z,53.06
2016-03-03T11:49:30.677Z,53.25
2016-03-03T11:50:30.632Z,53.25
2016-03-03T11:51:30.604Z,52.96
2016-03-03T11:52:30.576Z,53.34
2016-03-03T11:53:30.547Z,53.18
2016-03-03T11:54:30.534Z,52.7
2016-03-03T11:55:30.519Z,52.48
2016-03-03T11:56:30.482Z,52.42
2016-03-03T11:57:30.444Z,52.03
2016-03-03T11:58:30.439Z,51.75
2016-03-03T11:59:30.373Z,51.84
2016-03-03T12:00:30.369Z,51.65
2016-03-03T12:01:30.321Z,51.84
2016-03-03T12:02:30.320Z,51.46
2016-03-03T12:03:30.493Z,50.89
2016-03-03T12:04:30.242Z,50.98
2016-03-03T12:05:30.226Z,50.89
2016-03-03T12:06:30.213Z,50.5
2016-03-03T12:07:30.183Z,50.89
2016-03-03T12:08:30.153Z,50.5
2016-03-03T12:09:30.232Z,50.21
2016-03-03T12:10:30.093Z,49.93
2016-03-03T12:11:30.299Z,49.74
2016-03-03T12:12:30.067Z,49.74
2016-03-03T12:13:30.038Z,49.74
2016-03-03T12:14:30.009Z,49.74
2016-03-03T12:15:29.981Z,50.02
2016-03-03T12:16:29.967Z,49.26
2016-03-03T12:17:29.938Z,49.45
2016-03-03T12:18:29.925Z,49.38
2016-03-03T12:19:29.911Z,49.26
2016-03-03T12:20:29.882Z,49.09
2016-03-03T12:21:29.854Z,49.26
2016-03-03T12:22:29.841Z,49.16
2016-03-03T12:23:29.812Z,49.35
2016-03-03T12:24:29.814Z,49.35
2016-03-03T12:25:29.771Z,49.55
2016-03-03T12:26:29.742Z,49.35
2016-03-03T12:27:29.714Z,49.35
2016-03-03T12:28:29.700Z,49.45
2016-03-03T12:29:29.688Z,49.35
2016-03-03T12:30:29.659Z,49.35
2016-03-03T12:31:29.631Z,49.26
2016-03-03T12:32:29.602Z,49.26
2016-03-03T12:33:29.589Z,49.16
2016-03-03T12:34:29.561Z,49.35
2016-03-03T12:35:29.548Z,49.16
2016-03-03T12:36:29.535Z,49.26
2016-03-03T12:37:29.491Z,49.16
2016-03-03T12:38:29.493Z,48.97
2016-03-03T12:39:29.449Z,49.07
2016-03-03T12:40:29.436Z,48.88
2016-03-03T12:41:29.407Z,48.61
2016-03-03T12:42:29.380Z,48.52
2016-03-03T12:43:29.366Z,48.23
2016-03-03T12:44:29.337Z,48.52
2016-03-03T12:45:29.325Z,48.52
2016-03-03T12:46:29.296Z,48.23
2016-03-03T12:47:29.267Z,47.94
2016-03-03T12:48:29.270Z,48.07
2016-03-03T12:49:29.242Z,47.94
2016-03-03T12:50:29.213Z,47.3
2016-03-03T12:51:29.184Z,47.58
2016-03-03T12:52:29.156Z,47.01
2016-03-03T12:53:29.159Z,47.01
2016-03-03T12:54:29.114Z,46.82
2016-03-03T12:55:29.101Z,46.84
2016-03-03T12:56:29.073Z,46.62
2016-03-03T12:57:29.045Z,46.84